Terminal Aerodrome Forecast
Issued by NWS

Home | Current Version | Previous Version | Text Only | Print | Product List | Glossary On
Versions: 1 2 3 4 5 6 7 8 9 10 11 12 13 14 15 16 17
000
FTUS45 KFGZ 080135 AAA
TAFPRC
TAF AMD
KPRC 080135Z 0802/0824 VRB06KT P6SM VCTS SCT100CB
      TEMPO 0802/0803 VRB10G20KT -TSRA BKN070CB
     FM080300 20005KT P6SM FEW120
     FM081700 23009KT P6SM SCT090=

USA.gov is the U.S. government's official web portal to all federal, state and local government web resources and services.